sensor_id;sensor_type;location;lat;lon;timestamp;temperature;humidity
8643;DHT22;4359;49.358;11.256;2023-06-22T00:00:49;16.60;99.90
8643;DHT22;4359;49.358;11.256;2023-06-22T00:03:19;16.60;99.90
8643;DHT22;4359;49.358;11.256;2023-06-22T00:05:46;16.60;99.90
8643;DHT22;4359;49.358;11.256;2023-06-22T00:08:12;16.70;99.90
8643;DHT22;4359;49.358;11.256;2023-06-22T00:10:37;16.70;99.90
8643;DHT22;4359;49.358;11.256;2023-06-22T00:13:03;16.70;99.90
8643;DHT22;4359;49.358;11.256;2023-06-22T00:15:29;16.70;99.90
8643;DHT22;4359;49.358;11.256;2023-06-22T00:17:55;16.70;99.90
8643;DHT22;4359;49.358;11.256;2023-06-22T00:20:22;16.70;99.90
8643;DHT22;4359;49.358;11.256;2023-06-22T00:22:48;16.60;99.90
8643;DHT22;4359;49.358;11.256;2023-06-22T00:25:14;16.50;99.90
8643;DHT22;4359;49.358;11.256;2023-06-22T00:27:39;16.50;99.90
8643;DHT22;4359;49.358;11.256;2023-06-22T00:30:06;16.40;99.90
8643;DHT22;4359;49.358;11.256;2023-06-22T00:32:32;16.20;99.90
8643;DHT22;4359;49.358;11.256;2023-06-22T00:34:57;16.20;99.90
8643;DHT22;4359;49.358;11.256;2023-06-22T00:37:23;16.20;99.90
8643;DHT22;4359;49.358;11.256;2023-06-22T00:39:51;16.20;99.90
8643;DHT22;4359;49.358;11.256;2023-06-22T00:42:17;16.10;99.90
8643;DHT22;4359;49.358;11.256;2023-06-22T00:44:43;16.10;99.90
8643;DHT22;4359;49.358;11.256;2023-06-22T00:47:11;16.00;99.90
8643;DHT22;4359;49.358;11.256;2023-06-22T00:49:39;15.90;99.90
8643;DHT22;4359;49.358;11.256;2023-06-22T00:52:06;15.80;99.90
8643;DHT22;4359;49.358;11.256;2023-06-22T00:54:36;15.80;99.90
8643;DHT22;4359;49.358;11.256;2023-06-22T00:57:02;15.80;99.90
8643;DHT22;4359;49.358;11.256;2023-06-22T00:59:28;15.70;99.90
8643;DHT22;4359;49.358;11.256;2023-06-22T01:01:54;15.70;99.90
8643;DHT22;4359;49.358;11.256;2023-06-22T01:04:24;15.70;99.90
8643;DHT22;4359;49.358;11.256;2023-06-22T01:07:05;15.60;99.90
8643;DHT22;4359;49.358;11.256;2023-06-22T01:09:47;15.60;99.90
8643;DHT22;4359;49.358;11.256;2023-06-22T01:12:15;15.60;99.90
8643;DHT22;4359;49.358;11.256;2023-06-22T01:14:46;15.60;99.90
8643;DHT22;4359;49.358;11.256;2023-06-22T01:17:13;15.50;99.90
8643;DHT22;4359;49.358;11.256;2023-06-22T01:19:48;15.50;99.90
8643;DHT22;4359;49.358;11.256;2023-06-22T01:22:24;15.50;99.90
8643;DHT22;4359;49.358;11.256;2023-06-22T01:25:10;15.50;99.90
8643;DHT22;4359;49.358;11.256;2023-06-22T01:27:55;15.70;99.90
8643;DHT22;4359;49.358;11.256;2023-06-22T01:30:22;15.90;99.90
8643;DHT22;4359;49.358;11.256;2023-06-22T01:32:51;15.90;99.90
8643;DHT22;4359;49.358;11.256;2023-06-22T01:35:19;16.00;99.90
8643;DHT22;4359;49.358;11.256;2023-06-22T01:37:46;15.90;99.90
8643;DHT22;4359;49.358;11.256;2023-06-22T01:40:12;15.90;99.90
8643;DHT22;4359;49.358;11.256;2023-06-22T01:42:39;15.90;99.90
8643;DHT22;4359;49.358;11.256;2023-06-22T01:45:05;15.90;99.90
8643;DHT22;4359;49.358;11.256;2023-06-22T01:47:32;15.90;99.90
8643;DHT22;4359;49.358;11.256;2023-06-22T01:49:59;15.80;99.90
8643;DHT22;4359;49.358;11.256;2023-06-22T01:52:24;15.80;99.90
8643;DHT22;4359;49.358;11.256;2023-06-22T01:54:50;15.80;99.90
8643;DHT22;4359;49.358;11.256;2023-06-22T01:57:16;15.80;99.90
8643;DHT22;4359;49.358;11.256;2023-06-22T02:00:00;15.80;99.90
8643;DHT22;4359;49.358;11.256;2023-06-22T02:02:48;15.80;99.90
8643;DHT22;4359;49.358;11.256;2023-06-22T02:05:18;15.80;99.90
8643;DHT22;4359;49.358;11.256;2023-06-22T02:07:52;15.70;99.90
8643;DHT22;4359;49.358;11.256;2023-06-22T02:10:22;15.70;99.90
8643;DHT22;4359;49.358;11.256;2023-06-22T02:12:50;15.70;99.90
8643;DHT22;4359;49.358;11.256;2023-06-22T02:15:17;15.70;99.90
8643;DHT22;4359;49.358;11.256;2023-06-22T02:17:43;15.60;99.90
8643;DHT22;4359;49.358;11.256;2023-06-22T02:20:15;15.50;99.90
8643;DHT22;4359;49.358;11.256;2023-06-22T02:22:41;15.50;99.90
8643;DHT22;4359;49.358;11.256;2023-06-22T02:25:07;15.50;99.90
8643;DHT22;4359;49.358;11.256;2023-06-22T02:27:32;15.40;99.90
8643;DHT22;4359;49.358;11.256;2023-06-22T02:29:58;15.40;99.90
8643;DHT22;4359;49.358;11.256;2023-06-22T02:32:24;15.30;99.90
8643;DHT22;4359;49.358;11.256;2023-06-22T02:34:49;15.20;99.90
8643;DHT22;4359;49.358;11.256;2023-06-22T02:37:16;15.20;99.90
8643;DHT22;4359;49.358;11.256;2023-06-22T02:39:42;15.20;99.90
8643;DHT22;4359;49.358;11.256;2023-06-22T02:42:08;15.20;99.90
8643;DHT22;4359;49.358;11.256;2023-06-22T02:44:36;15.20;99.90
8643;DHT22;4359;49.358;11.256;2023-06-22T02:47:01;15.10;99.90
8643;DHT22;4359;49.358;11.256;2023-06-22T02:49:27;15.10;99.90
8643;DHT22;4359;49.358;11.256;2023-06-22T02:51:53;15.10;99.90
8643;DHT22;4359;49.358;11.256;2023-06-22T02:54:19;15.10;99.90
8643;DHT22;4359;49.358;11.256;2023-06-22T02:56:44;15.10;99.90
8643;DHT22;4359;49.358;11.256;2023-06-22T02:59:11;15.10;99.90
8643;DHT22;4359;49.358;11.256;2023-06-22T03:01:37;15.00;99.90
8643;DHT22;4359;49.358;11.256;2023-06-22T03:04:06;14.90;99.90
8643;DHT22;4359;49.358;11.256;2023-06-22T03:06:32;14.80;99.90
8643;DHT22;4359;49.358;11.256;2023-06-22T03:09:00;14.70;99.90
8643;DHT22;4359;49.358;11.256;2023-06-22T03:11:26;14.70;99.90
8643;DHT22;4359;49.358;11.256;2023-06-22T03:13:52;14.90;99.90
8643;DHT22;4359;49.358;11.256;2023-06-22T03:16:18;15.00;99.90
8643;DHT22;4359;49.358;11.256;2023-06-22T03:18:44;15.10;99.90
8643;DHT22;4359;49.358;11.256;2023-06-22T03:21:10;15.20;99.90
8643;DHT22;4359;49.358;11.256;2023-06-22T03:23:36;15.30;99.90
8643;DHT22;4359;49.358;11.256;2023-06-22T03:26:02;15.30;99.90
8643;DHT22;4359;49.358;11.256;2023-06-22T03:28:28;15.20;99.90
8643;DHT22;4359;49.358;11.256;2023-06-22T03:30:53;15.20;99.90
8643;DHT22;4359;49.358;11.256;2023-06-22T03:33:19;15.30;99.90
8643;DHT22;4359;49.358;11.256;2023-06-22T03:35:45;15.30;99.90
8643;DHT22;4359;49.358;11.256;2023-06-22T03:38:10;15.30;99.90
8643;DHT22;4359;49.358;11.256;2023-06-22T03:40:36;15.20;99.90
8643;DHT22;4359;49.358;11.256;2023-06-22T03:43:02;15.30;99.90
8643;DHT22;4359;49.358;11.256;2023-06-22T03:45:27;15.30;99.90
8643;DHT22;4359;49.358;11.256;2023-06-22T03:47:53;15.30;99.90
8643;DHT22;4359;49.358;11.256;2023-06-22T03:50:19;15.30;99.90
8643;DHT22;4359;49.358;11.256;2023-06-22T03:52:46;15.40;99.90
8643;DHT22;4359;49.358;11.256;2023-06-22T03:55:12;15.50;99.90
8643;DHT22;4359;49.358;11.256;2023-06-22T03:57:37;15.60;99.90
8643;DHT22;4359;49.358;11.256;2023-06-22T04:00:04;15.60;99.90
8643;DHT22;4359;49.358;11.256;2023-06-22T04:02:33;15.70;99.90
8643;DHT22;4359;49.358;11.256;2023-06-22T04:04:59;15.70;99.90
8643;DHT22;4359;49.358;11.256;2023-06-22T04:07:24;15.80;99.90
8643;DHT22;4359;49.358;11.256;2023-06-22T04:09:50;15.80;99.90
8643;DHT22;4359;49.358;11.256;2023-06-22T04:12:16;15.80;99.90
8643;DHT22;4359;49.358;11.256;2023-06-22T04:14:41;15.90;99.90
8643;DHT22;4359;49.358;11.256;2023-06-22T04:17:07;15.90;99.90
8643;DHT22;4359;49.358;11.256;2023-06-22T04:19:33;16.00;99.90
8643;DHT22;4359;49.358;11.256;2023-06-22T04:21:58;16.10;99.90
8643;DHT22;4359;49.358;11.256;2023-06-22T04:24:24;16.20;99.90
8643;DHT22;4359;49.358;11.256;2023-06-22T04:26:50;16.20;99.90
8643;DHT22;4359;49.358;11.256;2023-06-22T04:29:20;16.30;99.90
8643;DHT22;4359;49.358;11.256;2023-06-22T04:31:46;16.40;99.90
8643;DHT22;4359;49.358;11.256;2023-06-22T04:34:17;16.50;99.90
8643;DHT22;4359;49.358;11.256;2023-06-22T04:36:42;16.60;99.90
8643;DHT22;4359;49.358;11.256;2023-06-22T04:39:10;16.60;99.90
8643;DHT22;4359;49.358;11.256;2023-06-22T04:41:40;16.70;99.90
8643;DHT22;4359;49.358;11.256;2023-06-22T04:44:13;16.80;99.90
8643;DHT22;4359;49.358;11.256;2023-06-22T04:46:40;16.80;99.90
8643;DHT22;4359;49.358;11.256;2023-06-22T04:49:06;16.80;99.90
8643;DHT22;4359;49.358;11.256;2023-06-22T04:51:38;16.90;99.90
8643;DHT22;4359;49.358;11.256;2023-06-22T04:54:03;17.00;99.90
8643;DHT22;4359;49.358;11.256;2023-06-22T04:56:32;17.20;99.90
8643;DHT22;4359;49.358;11.256;2023-06-22T04:58:57;17.30;99.90
8643;DHT22;4359;49.358;11.256;2023-06-22T05:01:23;17.40;99.90
8643;DHT22;4359;49.358;11.256;2023-06-22T05:03:50;17.50;99.90
8643;DHT22;4359;49.358;11.256;2023-06-22T05:06:21;17.60;99.90
8643;DHT22;4359;49.358;11.256;2023-06-22T05:08:56;17.80;99.90
8643;DHT22;4359;49.358;11.256;2023-06-22T05:11:26;18.10;99.90
8643;DHT22;4359;49.358;11.256;2023-06-22T05:13:52;18.30;99.90
8643;DHT22;4359;49.358;11.256;2023-06-22T05:16:18;18.50;99.90
8643;DHT22;4359;49.358;11.256;2023-06-22T05:18:51;18.70;99.90
8643;DHT22;4359;49.358;11.256;2023-06-22T05:21:17;18.90;99.90
8643;DHT22;4359;49.358;11.256;2023-06-22T05:23:43;19.10;99.90
8643;DHT22;4359;49.358;11.256;2023-06-22T05:26:08;19.30;99.90
8643;DHT22;4359;49.358;11.256;2023-06-22T05:28:35;19.40;99.90
8643;DHT22;4359;49.358;11.256;2023-06-22T05:31:01;19.60;99.90
8643;DHT22;4359;49.358;11.256;2023-06-22T05:33:27;19.70;99.90
8643;DHT22;4359;49.358;11.256;2023-06-22T05:35:52;19.90;99.90
8643;DHT22;4359;49.358;11.256;2023-06-22T05:38:18;20.10;99.90
8643;DHT22;4359;49.358;11.256;2023-06-22T05:40:43;20.20;99.90
8643;DHT22;4359;49.358;11.256;2023-06-22T05:43:09;20.30;99.90
8643;DHT22;4359;49.358;11.256;2023-06-22T05:45:35;20.50;99.90
8643;DHT22;4359;49.358;11.256;2023-06-22T05:48:00;20.70;99.90
8643;DHT22;4359;49.358;11.256;2023-06-22T05:50:27;20.90;99.90
8643;DHT22;4359;49.358;11.256;2023-06-22T05:52:52;21.00;99.90
8643;DHT22;4359;49.358;11.256;2023-06-22T05:55:18;21.30;99.90
8643;DHT22;4359;49.358;11.256;2023-06-22T05:57:44;21.30;99.90
8643;DHT22;4359;49.358;11.256;2023-06-22T06:00:10;21.40;99.90
8643;DHT22;4359;49.358;11.256;2023-06-22T06:02:37;21.70;99.90
8643;DHT22;4359;49.358;11.256;2023-06-22T06:05:11;21.80;99.90
8643;DHT22;4359;49.358;11.256;2023-06-22T06:07:39;21.90;99.90
8643;DHT22;4359;49.358;11.256;2023-06-22T06:10:05;22.00;99.90
8643;DHT22;4359;49.358;11.256;2023-06-22T06:12:32;22.00;99.90
8643;DHT22;4359;49.358;11.256;2023-06-22T06:14:57;22.10;99.90
8643;DHT22;4359;49.358;11.256;2023-06-22T06:17:23;22.20;99.90
8643;DHT22;4359;49.358;11.256;2023-06-22T06:19:49;22.40;99.90
8643;DHT22;4359;49.358;11.256;2023-06-22T06:22:15;22.60;99.90
8643;DHT22;4359;49.358;11.256;2023-06-22T06:24:40;22.60;99.90
8643;DHT22;4359;49.358;11.256;2023-06-22T06:27:06;22.60;99.90
8643;DHT22;4359;49.358;11.256;2023-06-22T06:29:32;22.80;99.90
8643;DHT22;4359;49.358;11.256;2023-06-22T06:31:57;23.00;99.90
8643;DHT22;4359;49.358;11.256;2023-06-22T06:34:23;23.10;99.90
8643;DHT22;4359;49.358;11.256;2023-06-22T06:36:49;23.30;99.90
8643;DHT22;4359;49.358;11.256;2023-06-22T06:39:14;23.50;99.90
8643;DHT22;4359;49.358;11.256;2023-06-22T06:41:41;23.80;99.90
8643;DHT22;4359;49.358;11.256;2023-06-22T06:44:07;23.90;99.90
8643;DHT22;4359;49.358;11.256;2023-06-22T06:46:33;24.10;99.90
8643;DHT22;4359;49.358;11.256;2023-06-22T06:48:58;24.40;99.90
8643;DHT22;4359;49.358;11.256;2023-06-22T06:51:24;24.60;99.90
8643;DHT22;4359;49.358;11.256;2023-06-22T06:53:50;24.70;99.90
8643;DHT22;4359;49.358;11.256;2023-06-22T06:56:16;24.90;99.90
8643;DHT22;4359;49.358;11.256;2023-06-22T06:58:42;25.00;99.90
8643;DHT22;4359;49.358;11.256;2023-06-22T07:01:08;24.90;99.90
8643;DHT22;4359;49.358;11.256;2023-06-22T07:03:34;25.00;99.90
8643;DHT22;4359;49.358;11.256;2023-06-22T07:06:00;25.20;99.90
8643;DHT22;4359;49.358;11.256;2023-06-22T07:08:26;25.30;99.90
8643;DHT22;4359;49.358;11.256;2023-06-22T07:10:54;25.60;99.90
8643;DHT22;4359;49.358;11.256;2023-06-22T07:13:20;25.70;99.90
8643;DHT22;4359;49.358;11.256;2023-06-22T07:15:46;25.90;99.90
8643;DHT22;4359;49.358;11.256;2023-06-22T07:18:12;25.80;99.90
8643;DHT22;4359;49.358;11.256;2023-06-22T07:20:37;26.00;99.90
8643;DHT22;4359;49.358;11.256;2023-06-22T07:23:04;26.10;99.90
8643;DHT22;4359;49.358;11.256;2023-06-22T07:25:30;26.20;99.90
8643;DHT22;4359;49.358;11.256;2023-06-22T07:28:05;26.30;99.90
8643;DHT22;4359;49.358;11.256;2023-06-22T07:30:32;26.40;99.90
8643;DHT22;4359;49.358;11.256;2023-06-22T07:32:59;26.50;99.90
8643;DHT22;4359;49.358;11.256;2023-06-22T07:35:29;26.50;99.90
8643;DHT22;4359;49.358;11.256;2023-06-22T07:37:54;26.40;99.90
8643;DHT22;4359;49.358;11.256;2023-06-22T07:40:20;26.50;99.90
8643;DHT22;4359;49.358;11.256;2023-06-22T07:42:46;26.70;99.90
8643;DHT22;4359;49.358;11.256;2023-06-22T07:45:13;27.10;99.90
8643;DHT22;4359;49.358;11.256;2023-06-22T07:47:40;27.50;99.90
8643;DHT22;4359;49.358;11.256;2023-06-22T07:50:06;27.70;99.90
8643;DHT22;4359;49.358;11.256;2023-06-22T07:52:32;27.60;99.90
8643;DHT22;4359;49.358;11.256;2023-06-22T07:54:58;27.50;99.90
8643;DHT22;4359;49.358;11.256;2023-06-22T07:57:23;27.70;99.90
8643;DHT22;4359;49.358;11.256;2023-06-22T07:59:57;27.90;99.90
8643;DHT22;4359;49.358;11.256;2023-06-22T08:02:24;28.20;99.90
8643;DHT22;4359;49.358;11.256;2023-06-22T08:04:49;28.40;99.90
8643;DHT22;4359;49.358;11.256;2023-06-22T08:07:15;28.50;99.90
8643;DHT22;4359;49.358;11.256;2023-06-22T08:09:46;28.60;99.90
8643;DHT22;4359;49.358;11.256;2023-06-22T08:12:12;28.80;99.90
8643;DHT22;4359;49.358;11.256;2023-06-22T08:14:38;29.20;99.90
8643;DHT22;4359;49.358;11.256;2023-06-22T08:17:04;29.30;99.90
8643;DHT22;4359;49.358;11.256;2023-06-22T08:19:30;29.30;99.90
8643;DHT22;4359;49.358;11.256;2023-06-22T08:21:56;29.50;99.90
8643;DHT22;4359;49.358;11.256;2023-06-22T08:24:22;29.60;99.90
8643;DHT22;4359;49.358;11.256;2023-06-22T08:26:51;29.80;99.90
8643;DHT22;4359;49.358;11.256;2023-06-22T08:29:16;29.50;99.90
8643;DHT22;4359;49.358;11.256;2023-06-22T08:31:42;29.30;99.90
8643;DHT22;4359;49.358;11.256;2023-06-22T08:34:08;29.30;99.90
8643;DHT22;4359;49.358;11.256;2023-06-22T08:36:33;29.30;99.90
8643;DHT22;4359;49.358;11.256;2023-06-22T08:39:03;29.60;99.90
8643;DHT22;4359;49.358;11.256;2023-06-22T08:41:29;30.00;99.90
8643;DHT22;4359;49.358;11.256;2023-06-22T08:43:55;30.00;99.90
8643;DHT22;4359;49.358;11.256;2023-06-22T08:46:21;30.00;99.90
8643;DHT22;4359;49.358;11.256;2023-06-22T08:48:50;30.10;99.90
8643;DHT22;4359;49.358;11.256;2023-06-22T08:51:16;30.50;99.90
8643;DHT22;4359;49.358;11.256;2023-06-22T08:53:42;30.30;99.90
8643;DHT22;4359;49.358;11.256;2023-06-22T08:56:08;30.20;99.90
8643;DHT22;4359;49.358;11.256;2023-06-22T08:58:34;30.40;99.90
8643;DHT22;4359;49.358;11.256;2023-06-22T09:00:59;30.70;99.90
8643;DHT22;4359;49.358;11.256;2023-06-22T09:03:26;30.80;99.90
8643;DHT22;4359;49.358;11.256;2023-06-22T09:05:52;31.00;99.90
8643;DHT22;4359;49.358;11.256;2023-06-22T09:08:18;31.00;99.90
8643;DHT22;4359;49.358;11.256;2023-06-22T09:10:43;30.70;99.90
8643;DHT22;4359;49.358;11.256;2023-06-22T09:13:09;30.50;99.90
8643;DHT22;4359;49.358;11.256;2023-06-22T09:15:35;30.40;99.90
8643;DHT22;4359;49.358;11.256;2023-06-22T09:18:00;30.60;99.90
8643;DHT22;4359;49.358;11.256;2023-06-22T09:20:26;30.90;99.90
8643;DHT22;4359;49.358;11.256;2023-06-22T09:22:52;31.30;99.90
8643;DHT22;4359;49.358;11.256;2023-06-22T09:25:17;31.50;99.90
8643;DHT22;4359;49.358;11.256;2023-06-22T09:27:46;31.70;99.90
8643;DHT22;4359;49.358;11.256;2023-06-22T09:30:12;32.20;99.90
8643;DHT22;4359;49.358;11.256;2023-06-22T09:32:38;32.00;99.90
8643;DHT22;4359;49.358;11.256;2023-06-22T09:35:05;32.20;99.90
8643;DHT22;4359;49.358;11.256;2023-06-22T09:37:31;31.90;99.90
8643;DHT22;4359;49.358;11.256;2023-06-22T09:40:00;31.60;99.90
8643;DHT22;4359;49.358;11.256;2023-06-22T09:42:26;31.60;99.90
8643;DHT22;4359;49.358;11.256;2023-06-22T09:44:51;31.50;99.90
8643;DHT22;4359;49.358;11.256;2023-06-22T09:47:17;31.80;99.90
8643;DHT22;4359;49.358;11.256;2023-06-22T09:49:43;32.00;99.90
8643;DHT22;4359;49.358;11.256;2023-06-22T09:52:08;31.70;99.90
8643;DHT22;4359;49.358;11.256;2023-06-22T09:54:34;31.60;99.90
8643;DHT22;4359;49.358;11.256;2023-06-22T09:57:00;31.50;99.90
8643;DHT22;4359;49.358;11.256;2023-06-22T09:59:25;31.40;99.90
8643;DHT22;4359;49.358;11.256;2023-06-22T10:01:51;31.50;99.90
8643;DHT22;4359;49.358;11.256;2023-06-22T10:04:17;31.80;99.90
8643;DHT22;4359;49.358;11.256;2023-06-22T10:06:43;32.00;99.90
8643;DHT22;4359;49.358;11.256;2023-06-22T10:09:08;31.70;99.90
8643;DHT22;4359;49.358;11.256;2023-06-22T10:11:34;31.90;99.90
8643;DHT22;4359;49.358;11.256;2023-06-22T10:14:01;32.00;99.90
8643;DHT22;4359;49.358;11.256;2023-06-22T10:16:31;32.20;99.90
8643;DHT22;4359;49.358;11.256;2023-06-22T10:18:57;32.20;99.90
8643;DHT22;4359;49.358;11.256;2023-06-22T10:21:23;32.40;99.90
8643;DHT22;4359;49.358;11.256;2023-06-22T10:23:48;32.30;99.90
8643;DHT22;4359;49.358;11.256;2023-06-22T10:26:14;32.50;99.90
8643;DHT22;4359;49.358;11.256;2023-06-22T10:28:39;32.50;99.90
8643;DHT22;4359;49.358;11.256;2023-06-22T10:31:05;32.70;99.90
8643;DHT22;4359;49.358;11.256;2023-06-22T10:33:31;33.10;99.90
8643;DHT22;4359;49.358;11.256;2023-06-22T10:35:56;33.30;99.90
8643;DHT22;4359;49.358;11.256;2023-06-22T10:38:22;33.60;99.90
8643;DHT22;4359;49.358;11.256;2023-06-22T10:40:48;33.10;99.90
8643;DHT22;4359;49.358;11.256;2023-06-22T10:43:13;33.30;99.90
8643;DHT22;4359;49.358;11.256;2023-06-22T10:45:39;33.70;99.90
8643;DHT22;4359;49.358;11.256;2023-06-22T10:48:05;33.70;99.90
8643;DHT22;4359;49.358;11.256;2023-06-22T10:50:30;34.00;99.90
8643;DHT22;4359;49.358;11.256;2023-06-22T10:52:56;34.30;99.90
8643;DHT22;4359;49.358;11.256;2023-06-22T10:55:22;34.50;99.90
8643;DHT22;4359;49.358;11.256;2023-06-22T10:57:48;34.60;99.90
8643;DHT22;4359;49.358;11.256;2023-06-22T11:00:15;34.50;99.90
8643;DHT22;4359;49.358;11.256;2023-06-22T11:02:41;34.00;99.50
8643;DHT22;4359;49.358;11.256;2023-06-22T11:05:07;34.00;99.90
8643;DHT22;4359;49.358;11.256;2023-06-22T11:07:33;33.90;99.90
8643;DHT22;4359;49.358;11.256;2023-06-22T11:09:59;34.20;99.90
8643;DHT22;4359;49.358;11.256;2023-06-22T11:12:25;34.50;99.90
8643;DHT22;4359;49.358;11.256;2023-06-22T11:14:50;34.40;99.90
8643;DHT22;4359;49.358;11.256;2023-06-22T11:17:17;34.50;99.90
8643;DHT22;4359;49.358;11.256;2023-06-22T11:19:46;34.10;99.70
8643;DHT22;4359;49.358;11.256;2023-06-22T11:22:12;34.00;99.90
8643;DHT22;4359;49.358;11.256;2023-06-22T11:24:38;34.20;99.90
8643;DHT22;4359;49.358;11.256;2023-06-22T11:27:04;34.30;99.90
8643;DHT22;4359;49.358;11.256;2023-06-22T11:29:30;34.40;99.60
8643;DHT22;4359;49.358;11.256;2023-06-22T11:31:56;34.60;99.90
8643;DHT22;4359;49.358;11.256;2023-06-22T11:34:22;35.00;99.80
8643;DHT22;4359;49.358;11.256;2023-06-22T11:36:47;34.50;99.00
8643;DHT22;4359;49.358;11.256;2023-06-22T11:39:13;34.10;99.30
8643;DHT22;4359;49.358;11.256;2023-06-22T11:41:40;34.20;99.90
8643;DHT22;4359;49.358;11.256;2023-06-22T11:44:06;34.50;99.90
8643;DHT22;4359;49.358;11.256;2023-06-22T11:46:35;34.90;99.80
8643;DHT22;4359;49.358;11.256;2023-06-22T11:49:01;35.20;99.60
8643;DHT22;4359;49.358;11.256;2023-06-22T11:51:27;35.20;99.90
8643;DHT22;4359;49.358;11.256;2023-06-22T11:53:53;35.50;98.20
8643;DHT22;4359;49.358;11.256;2023-06-22T11:56:19;35.80;96.50
8643;DHT22;4359;49.358;11.256;2023-06-22T11:58:45;36.30;96.80
8643;DHT22;4359;49.358;11.256;2023-06-22T12:01:10;36.20;97.70
8643;DHT22;4359;49.358;11.256;2023-06-22T12:03:38;36.60;96.40
8643;DHT22;4359;49.358;11.256;2023-06-22T12:06:04;36.30;97.40
8643;DHT22;4359;49.358;11.256;2023-06-22T12:08:30;36.10;98.60
8643;DHT22;4359;49.358;11.256;2023-06-22T12:10:55;36.20;96.50
8643;DHT22;4359;49.358;11.256;2023-06-22T12:13:21;36.50;95.30
8643;DHT22;4359;49.358;11.256;2023-06-22T12:15:47;36.80;97.70
8643;DHT22;4359;49.358;11.256;2023-06-22T12:18:13;36.40;96.40
8643;DHT22;4359;49.358;11.256;2023-06-22T12:20:40;36.40;96.50
8643;DHT22;4359;49.358;11.256;2023-06-22T12:23:06;36.60;96.90
8643;DHT22;4359;49.358;11.256;2023-06-22T12:25:31;37.00;95.20
8643;DHT22;4359;49.358;11.256;2023-06-22T12:27:57;36.80;97.10
8643;DHT22;4359;49.358;11.256;2023-06-22T12:30:23;36.50;96.80
8643;DHT22;4359;49.358;11.256;2023-06-22T12:32:48;36.70;96.70
8643;DHT22;4359;49.358;11.256;2023-06-22T12:35:15;36.70;97.00
8643;DHT22;4359;49.358;11.256;2023-06-22T12:37:41;36.30;96.30
8643;DHT22;4359;49.358;11.256;2023-06-22T12:40:08;35.60;96.30
8643;DHT22;4359;49.358;11.256;2023-06-22T12:42:34;34.80;96.40
8643;DHT22;4359;49.358;11.256;2023-06-22T12:45:00;35.30;97.00
8643;DHT22;4359;49.358;11.256;2023-06-22T12:47:25;35.60;96.10
8643;DHT22;4359;49.358;11.256;2023-06-22T12:49:51;36.10;97.10
8643;DHT22;4359;49.358;11.256;2023-06-22T12:52:17;35.90;95.40
8643;DHT22;4359;49.358;11.256;2023-06-22T12:54:42;35.80;97.20
8643;DHT22;4359;49.358;11.256;2023-06-22T12:57:08;36.00;95.80
8643;DHT22;4359;49.358;11.256;2023-06-22T12:59:34;36.20;95.90
8643;DHT22;4359;49.358;11.256;2023-06-22T13:02:00;36.00;96.70
8643;DHT22;4359;49.358;11.256;2023-06-22T13:04:25;36.10;95.80
8643;DHT22;4359;49.358;11.256;2023-06-22T13:06:51;36.60;95.60
8643;DHT22;4359;49.358;11.256;2023-06-22T13:09:20;36.90;95.40
8643;DHT22;4359;49.358;11.256;2023-06-22T13:11:45;37.00;94.60
8643;DHT22;4359;49.358;11.256;2023-06-22T13:14:11;37.20;94.50
8643;DHT22;4359;49.358;11.256;2023-06-22T13:16:37;37.20;95.40
8643;DHT22;4359;49.358;11.256;2023-06-22T13:19:03;37.40;94.10
8643;DHT22;4359;49.358;11.256;2023-06-22T13:21:29;37.80;94.90
8643;DHT22;4359;49.358;11.256;2023-06-22T13:23:55;38.40;93.70
8643;DHT22;4359;49.358;11.256;2023-06-22T13:26:21;37.50;93.80
8643;DHT22;4359;49.358;11.256;2023-06-22T13:28:48;37.70;93.30
8643;DHT22;4359;49.358;11.256;2023-06-22T13:31:14;37.40;92.50
8643;DHT22;4359;49.358;11.256;2023-06-22T13:33:39;36.80;94.00
8643;DHT22;4359;49.358;11.256;2023-06-22T13:36:06;36.50;93.50
8643;DHT22;4359;49.358;11.256;2023-06-22T13:38:35;36.40;94.40
8643;DHT22;4359;49.358;11.256;2023-06-22T13:41:04;36.50;93.60
8643;DHT22;4359;49.358;11.256;2023-06-22T13:43:30;36.60;93.70
8643;DHT22;4359;49.358;11.256;2023-06-22T13:45:55;36.50;94.00
8643;DHT22;4359;49.358;11.256;2023-06-22T13:48:21;36.30;93.70
8643;DHT22;4359;49.358;11.256;2023-06-22T13:50:48;36.20;92.70
8643;DHT22;4359;49.358;11.256;2023-06-22T13:53:14;35.80;92.90
8643;DHT22;4359;49.358;11.256;2023-06-22T13:55:39;36.20;93.50
8643;DHT22;4359;49.358;11.256;2023-06-22T13:58:05;36.30;93.80
8643;DHT22;4359;49.358;11.256;2023-06-22T14:00:32;36.40;92.80
8643;DHT22;4359;49.358;11.256;2023-06-22T14:02:57;36.10;93.40
8643;DHT22;4359;49.358;11.256;2023-06-22T14:05:23;36.10;93.40
8643;DHT22;4359;49.358;11.256;2023-06-22T14:07:49;36.20;91.80
8643;DHT22;4359;49.358;11.256;2023-06-22T14:10:15;36.10;91.30
8643;DHT22;4359;49.358;11.256;2023-06-22T14:12:40;35.70;91.20
8643;DHT22;4359;49.358;11.256;2023-06-22T14:15:06;35.50;91.30
8643;DHT22;4359;49.358;11.256;2023-06-22T14:17:32;35.50;91.00
8643;DHT22;4359;49.358;11.256;2023-06-22T14:19:58;35.70;91.20
8643;DHT22;4359;49.358;11.256;2023-06-22T14:22:23;36.00;91.00
8643;DHT22;4359;49.358;11.256;2023-06-22T14:24:49;36.10;88.90
8643;DHT22;4359;49.358;11.256;2023-06-22T14:27:15;36.40;91.10
8643;DHT22;4359;49.358;11.256;2023-06-22T14:29:41;36.30;91.60
8643;DHT22;4359;49.358;11.256;2023-06-22T14:32:08;36.10;91.50
8643;DHT22;4359;49.358;11.256;2023-06-22T14:34:34;35.60;91.30
8643;DHT22;4359;49.358;11.256;2023-06-22T14:37:06;35.10;91.40
8643;DHT22;4359;49.358;11.256;2023-06-22T14:39:31;35.00;91.60
8643;DHT22;4359;49.358;11.256;2023-06-22T14:41:57;35.30;91.30
8643;DHT22;4359;49.358;11.256;2023-06-22T14:44:23;35.70;91.70
8643;DHT22;4359;49.358;11.256;2023-06-22T14:46:48;35.90;91.10
8643;DHT22;4359;49.358;11.256;2023-06-22T14:49:14;35.80;90.70
8643;DHT22;4359;49.358;11.256;2023-06-22T14:51:40;35.90;90.60
8643;DHT22;4359;49.358;11.256;2023-06-22T14:54:06;36.00;90.40
8643;DHT22;4359;49.358;11.256;2023-06-22T14:56:31;36.20;90.90
8643;DHT22;4359;49.358;11.256;2023-06-22T14:58:57;36.30;92.00
8643;DHT22;4359;49.358;11.256;2023-06-22T15:01:22;36.70;90.50
8643;DHT22;4359;49.358;11.256;2023-06-22T15:03:48;37.50;90.60
8643;DHT22;4359;49.358;11.256;2023-06-22T15:06:14;38.60;88.70
8643;DHT22;4359;49.358;11.256;2023-06-22T15:08:40;39.40;87.80
8643;DHT22;4359;49.358;11.256;2023-06-22T15:11:06;40.00;85.80
8643;DHT22;4359;49.358;11.256;2023-06-22T15:13:32;40.40;83.30
8643;DHT22;4359;49.358;11.256;2023-06-22T15:16:00;40.80;83.80
8643;DHT22;4359;49.358;11.256;2023-06-22T15:18:25;40.80;84.10
8643;DHT22;4359;49.358;11.256;2023-06-22T15:20:55;40.90;80.90
8643;DHT22;4359;49.358;11.256;2023-06-22T15:23:20;41.10;80.40
8643;DHT22;4359;49.358;11.256;2023-06-22T15:25:49;41.00;80.90
8643;DHT22;4359;49.358;11.256;2023-06-22T15:28:14;40.90;79.30
8643;DHT22;4359;49.358;11.256;2023-06-22T15:30:40;41.00;79.20
8643;DHT22;4359;49.358;11.256;2023-06-22T15:33:06;40.60;78.10
8643;DHT22;4359;49.358;11.256;2023-06-22T15:35:32;40.00;79.60
8643;DHT22;4359;49.358;11.256;2023-06-22T15:37:58;38.90;83.30
8643;DHT22;4359;49.358;11.256;2023-06-22T15:40:24;38.00;81.90